createdAt,value
2023-02-17T00:01:23.913Z,93.68
2023-02-17T00:03:54.733Z,97.70
2023-02-17T00:06:24.912Z,88.68
2023-02-17T00:08:52.163Z,87.30
2023-02-17T00:11:20.189Z,95.28
2023-02-17T00:13:47.821Z,93.88
2023-02-17T00:16:20.650Z,102.75
2023-02-17T00:18:52.327Z,96.80
2023-02-17T00:21:23.633Z,104.75
2023-02-17T00:23:51.059Z,96.07
2023-02-17T00:26:19.406Z,104.30
2023-02-17T00:28:49.612Z,99.50
2023-02-17T00:31:22.341Z,103.90
2023-02-17T00:33:49.846Z,97.35
2023-02-17T00:36:20.229Z,96.95
2023-02-17T00:38:48.525Z,93.57
2023-02-17T00:41:19.910Z,101.28
2023-02-17T00:43:48.378Z,101.40
2023-02-17T00:46:17.613Z,105.45
2023-02-17T00:48:46.048Z,108.00
2023-02-17T00:51:16.434Z,97.72
2023-02-17T00:53:43.692Z,96.25
2023-02-17T00:56:12.040Z,95.07
2023-02-17T00:58:41.446Z,96.47
2023-02-17T01:01:10.198Z,108.95
2023-02-17T01:03:45.025Z,103.25
2023-02-17T01:06:27.170Z,103.38
2023-02-17T01:08:54.935Z,99.60
2023-02-17T01:11:25.759Z,97.43
2023-02-17T01:13:54.131Z,102.10
2023-02-17T01:16:28.229Z,99.45
2023-02-17T01:18:55.337Z,99.75
2023-02-17T01:21:25.873Z,98.50
2023-02-17T01:23:54.921Z,105.15
2023-02-17T01:26:24.731Z,100.22
2023-02-17T01:28:52.962Z,98.13
2023-02-17T01:31:22.629Z,94.97
2023-02-17T01:33:50.226Z,98.05
2023-02-17T01:36:19.266Z,101.55
2023-02-17T01:38:47.080Z,98.85
2023-02-17T01:41:16.781Z,92.82
2023-02-17T01:44:04.179Z,95.35
2023-02-17T01:46:36.159Z,96.70
2023-02-17T01:49:19.798Z,96.88
2023-02-17T01:51:51.744Z,100.10
2023-02-17T01:54:24.474Z,106.60
2023-02-17T01:56:52.456Z,98.47
2023-02-17T01:59:22.885Z,99.95
2023-02-17T02:01:54.933Z,95.78
2023-02-17T02:04:25.836Z,95.05
2023-02-17T02:06:53.287Z,93.22
2023-02-17T02:09:25.719Z,95.32
2023-02-17T02:11:53.607Z,94.07
2023-02-17T02:14:21.785Z,96.80
2023-02-17T02:16:58.544Z,91.53
2023-02-17T02:19:55.048Z,94.88
2023-02-17T02:22:39.976Z,94.60
2023-02-17T02:25:07.423Z,100.95
2023-02-17T02:28:17.926Z,90.78
2023-02-17T02:31:21.775Z,97.45
2023-02-17T02:34:24.750Z,94.45
2023-02-17T02:37:13.651Z,91.65
2023-02-17T02:39:46.653Z,89.45
2023-02-17T02:42:18.398Z,86.72
2023-02-17T02:44:45.980Z,92.68
2023-02-17T02:47:42.305Z,98.00
2023-02-17T02:50:12.902Z,89.18
2023-02-17T02:52:55.997Z,93.32
2023-02-17T02:55:53.165Z,89.85
2023-02-17T02:58:35.936Z,88.07
2023-02-17T03:01:16.073Z,86.47
2023-02-17T03:04:02.890Z,82.85
2023-02-17T03:07:05.222Z,85.97
2023-02-17T03:09:33.211Z,90.50
2023-02-17T03:12:00.857Z,91.75
2023-02-17T03:14:37.620Z,82.30
2023-02-17T03:17:05.623Z,86.90
2023-02-17T03:19:33.303Z,86.60
2023-02-17T03:22:12.422Z,89.75
2023-02-17T03:24:39.873Z,94.43
2023-02-17T03:27:09.098Z,90.50
2023-02-17T03:29:38.447Z,82.13
2023-02-17T03:32:06.047Z,82.88
2023-02-17T03:34:33.135Z,85.65
2023-02-17T03:37:00.408Z,80.53
2023-02-17T03:39:27.904Z,82.25
2023-02-17T03:41:55.274Z,79.50
2023-02-17T03:44:22.685Z,81.28
2023-02-17T03:46:50.046Z,82.60
2023-02-17T03:49:19.606Z,85.45
2023-02-17T03:51:47.221Z,82.30
2023-02-17T03:54:14.294Z,79.55
2023-02-17T03:56:42.109Z,77.97
2023-02-17T03:59:09.532Z,81.45
2023-02-17T04:01:37.050Z,81.55
2023-02-17T04:04:04.230Z,88.65
2023-02-17T04:06:33.735Z,87.28
2023-02-17T04:09:00.789Z,91.82
2023-02-17T04:11:28.473Z,129.77
2023-02-17T04:13:58.240Z,109.40
2023-02-17T04:16:25.666Z,140.10
2023-02-17T04:18:52.733Z,104.35
2023-02-17T04:21:20.171Z,104.85
2023-02-17T04:23:47.227Z,115.82
2023-02-17T04:26:14.638Z,115.90
2023-02-17T04:28:42.526Z,185.82
2023-02-17T04:31:12.329Z,145.00
2023-02-17T04:33:39.455Z,158.80
2023-02-17T04:36:07.131Z,200.65
2023-02-17T04:38:34.841Z,170.32
2023-02-17T04:41:02.321Z,101.10
2023-02-17T04:43:29.804Z,129.30
2023-02-17T04:45:57.667Z,107.30
2023-02-17T04:48:29.037Z,100.57
2023-02-17T04:50:56.587Z,102.93
2023-02-17T04:53:24.403Z,121.75
2023-02-17T04:55:52.968Z,87.95
2023-02-17T04:58:20.997Z,78.18
2023-02-17T05:00:50.064Z,106.05
2023-02-17T05:03:20.504Z,77.57
2023-02-17T05:05:48.470Z,89.85
2023-02-17T05:08:15.859Z,82.28
2023-02-17T05:10:43.312Z,81.43
2023-02-17T05:13:10.598Z,78.68
2023-02-17T05:15:38.505Z,78.63
2023-02-17T05:18:06.032Z,82.32
2023-02-17T05:20:34.048Z,85.38
2023-02-17T05:23:01.681Z,81.75
2023-02-17T05:25:29.082Z,86.68
2023-02-17T05:27:56.180Z,81.47
2023-02-17T05:30:23.771Z,86.97
2023-02-17T05:32:50.829Z,96.68
2023-02-17T05:35:18.589Z,87.97
2023-02-17T05:37:45.749Z,83.85
2023-02-17T05:40:13.461Z,84.68
2023-02-17T05:42:40.711Z,82.90
2023-02-17T05:45:08.583Z,100.43
2023-02-17T05:47:36.076Z,104.05
2023-02-17T05:50:04.114Z,97.68
2023-02-17T05:52:31.976Z,120.57
2023-02-17T05:54:59.433Z,120.82
2023-02-17T05:57:27.532Z,117.05
2023-02-17T05:59:54.855Z,126.88
2023-02-17T06:02:21.880Z,158.13
2023-02-17T06:04:49.330Z,116.07
2023-02-17T06:07:16.351Z,111.20
2023-02-17T06:09:44.859Z,122.88
2023-02-17T06:12:13.060Z,123.15
2023-02-17T06:14:40.540Z,147.50
2023-02-17T06:17:07.828Z,114.50
2023-02-17T06:19:35.233Z,121.00
2023-02-17T06:22:02.360Z,117.05
2023-02-17T06:24:29.945Z,101.40
2023-02-17T06:26:57.068Z,104.35
2023-02-17T06:29:24.509Z,114.15
2023-02-17T06:31:51.621Z,106.95
2023-02-17T06:34:19.113Z,102.93
2023-02-17T06:36:46.554Z,130.88
2023-02-17T06:39:14.062Z,97.53
2023-02-17T06:41:42.789Z,101.72
2023-02-17T06:44:10.141Z,94.22
2023-02-17T06:46:37.159Z,121.18
2023-02-17T06:49:04.839Z,120.15
2023-02-17T06:51:32.259Z,99.90
2023-02-17T06:53:59.608Z,108.65
2023-02-17T06:56:26.782Z,109.18
2023-02-17T06:58:54.493Z,93.28
2023-02-17T07:01:26.353Z,88.07
2023-02-17T07:03:54.483Z,93.57
2023-02-17T07:06:23.524Z,91.57
2023-02-17T07:08:51.464Z,107.53
2023-02-17T07:11:18.953Z,109.30
2023-02-17T07:13:48.092Z,83.90
2023-02-17T07:16:15.850Z,91.60
2023-02-17T07:18:43.240Z,89.97
2023-02-17T07:21:10.626Z,83.07
2023-02-17T07:23:39.512Z,88.88
2023-02-17T07:26:11.998Z,78.78
2023-02-17T07:28:40.291Z,71.15
2023-02-17T07:31:13.059Z,73.80
2023-02-17T07:33:42.022Z,71.45
2023-02-17T07:36:11.399Z,66.38
2023-02-17T07:38:39.677Z,98.90
2023-02-17T07:41:18.755Z,80.00
2023-02-17T07:43:48.161Z,83.38
2023-02-17T07:46:17.657Z,72.10
2023-02-17T07:48:45.050Z,68.25
2023-02-17T07:51:17.621Z,69.65
2023-02-17T07:53:45.046Z,96.07
2023-02-17T07:56:14.726Z,79.97
2023-02-17T07:58:43.399Z,72.70
2023-02-17T08:01:17.204Z,77.03
2023-02-17T08:03:45.446Z,78.50
2023-02-17T08:06:18.257Z,79.07
2023-02-17T08:09:06.007Z,84.55
2023-02-17T08:11:52.105Z,75.40
2023-02-17T08:14:21.808Z,83.72
2023-02-17T08:16:49.217Z,77.25
2023-02-17T08:19:16.359Z,76.57
2023-02-17T08:21:43.839Z,65.20
2023-02-17T08:24:12.265Z,85.93
2023-02-17T08:26:40.108Z,72.85
2023-02-17T08:29:07.665Z,78.75
2023-02-17T08:31:36.324Z,73.28
2023-02-17T08:34:05.979Z,73.45
2023-02-17T08:36:33.948Z,88.50
2023-02-17T08:39:01.500Z,86.05
2023-02-17T08:41:31.995Z,80.53
2023-02-17T08:44:04.270Z,86.90
2023-02-17T08:46:31.839Z,81.90
2023-02-17T08:48:58.954Z,80.45
2023-02-17T08:51:26.396Z,73.95
2023-02-17T08:53:56.879Z,84.75
2023-02-17T08:56:26.202Z,91.80
2023-02-17T08:58:53.810Z,91.00
2023-02-17T09:01:21.802Z,88.35
2023-02-17T09:03:50.632Z,94.07
2023-02-17T09:06:18.924Z,90.53
2023-02-17T09:08:46.336Z,92.35
2023-02-17T09:11:17.229Z,95.85
2023-02-17T09:13:44.918Z,117.50
2023-02-17T09:16:12.530Z,108.30
2023-02-17T09:18:40.002Z,99.85
2023-02-17T09:21:12.686Z,103.85
2023-02-17T09:23:42.651Z,92.53
2023-02-17T09:26:13.103Z,86.63
2023-02-17T09:28:41.223Z,80.25
2023-02-17T09:31:21.833Z,74.75
2023-02-17T09:33:51.185Z,78.35
2023-02-17T09:36:25.230Z,76.55
2023-02-17T09:38:54.001Z,68.20
2023-02-17T09:41:26.831Z,67.32
2023-02-17T09:43:55.179Z,72.75
2023-02-17T09:46:23.056Z,71.57
2023-02-17T09:48:52.668Z,70.78
2023-02-17T09:51:27.861Z,71.47
2023-02-17T09:54:30.181Z,73.70
2023-02-17T09:57:02.325Z,67.35
2023-02-17T09:59:47.163Z,81.93
2023-02-17T10:02:32.055Z,75.78
2023-02-17T10:05:05.773Z,63.20
2023-02-17T10:07:40.051Z,73.80
2023-02-17T10:10:38.434Z,62.30
2023-02-17T10:13:11.977Z,78.05
2023-02-17T10:15:43.532Z,77.63
2023-02-17T10:18:19.043Z,74.30
2023-02-17T10:21:19.400Z,82.00
2023-02-17T10:23:47.667Z,80.32
2023-02-17T10:26:34.251Z,86.25
2023-02-17T10:29:05.548Z,94.85
2023-02-17T10:31:46.282Z,134.57
2023-02-17T10:34:56.876Z,113.50
2023-02-17T10:37:48.291Z,140.95
2023-02-17T10:40:34.303Z,114.32
2023-02-17T10:43:07.659Z,106.45
2023-02-17T10:45:43.215Z,126.03
2023-02-17T10:48:23.133Z,87.15
2023-02-17T10:50:51.275Z,106.38
2023-02-17T10:53:34.977Z,123.45
2023-02-17T10:56:32.667Z,127.57
2023-02-17T10:59:07.375Z,113.40
2023-02-17T11:04:13.407Z,93.18
2023-02-17T11:06:50.033Z,107.03
2023-02-17T11:09:31.996Z,96.25
2023-02-17T11:12:16.413Z,117.57
2023-02-17T11:14:53.389Z,98.40
2023-02-17T11:17:31.313Z,105.50
2023-02-17T11:20:04.771Z,126.18
2023-02-17T11:22:44.522Z,120.78
2023-02-17T11:25:24.684Z,100.70
2023-02-17T11:27:53.632Z,95.47
2023-02-17T11:30:21.195Z,113.28
2023-02-17T11:32:48.791Z,89.80
2023-02-17T11:35:37.243Z,118.82
2023-02-17T11:38:14.657Z,100.43
2023-02-17T11:40:51.392Z,97.53
2023-02-17T11:43:21.471Z,109.55
2023-02-17T11:46:15.644Z,110.15
2023-02-17T11:48:48.935Z,93.82
2023-02-17T11:51:16.097Z,79.38
2023-02-17T11:54:18.121Z,106.40
2023-02-17T11:56:59.807Z,112.07
2023-02-17T12:00:00.969Z,115.18
2023-02-17T12:02:41.073Z,88.45
2023-02-17T12:05:41.677Z,120.63
2023-02-17T12:08:16.948Z,121.80
2023-02-17T12:10:54.996Z,93.82
2023-02-17T12:13:51.527Z,87.85
2023-02-17T12:17:01.808Z,102.97
2023-02-17T12:19:46.196Z,103.60
2023-02-17T12:22:20.877Z,100.03
2023-02-17T12:25:12.615Z,130.25
2023-02-17T12:28:13.723Z,91.53
2023-02-17T12:31:02.695Z,100.38
2023-02-17T12:33:33.030Z,201.07
2023-02-17T12:36:10.638Z,164.73
2023-02-17T12:38:49.232Z,202.73
2023-02-17T12:41:36.672Z,252.05
2023-02-17T12:44:13.084Z,156.48
2023-02-17T12:46:44.448Z,150.77
2023-02-17T12:49:30.478Z,166.48
2023-02-17T12:52:15.674Z,220.60
2023-02-17T12:54:51.423Z,233.30
2023-02-17T12:57:32.635Z,265.27
2023-02-17T13:00:01.525Z,210.18
2023-02-17T13:02:28.791Z,195.77
2023-02-17T13:05:07.428Z,167.82
2023-02-17T13:07:44.820Z,123.28
2023-02-17T13:10:27.274Z,140.13
2023-02-17T13:13:22.746Z,87.28
2023-02-17T13:18:33.536Z,155.15
2023-02-17T13:21:26.024Z,108.68
2023-02-17T13:24:39.030Z,84.05
2023-02-17T13:27:10.526Z,101.93
2023-02-17T13:29:37.981Z,98.03
2023-02-17T13:32:10.934Z,98.53
2023-02-17T13:34:43.539Z,86.22
2023-02-17T13:37:37.595Z,95.75
2023-02-17T13:40:16.782Z,81.82
2023-02-17T13:42:51.704Z,98.07
2023-02-17T13:45:24.472Z,94.47
2023-02-17T13:47:54.227Z,71.68
2023-02-17T13:50:34.723Z,80.03
2023-02-17T13:53:06.439Z,116.80
2023-02-17T13:55:33.571Z,70.68
2023-02-17T13:58:00.991Z,65.40
2023-02-17T14:00:31.385Z,68.30
2023-02-17T14:03:20.497Z,72.25
2023-02-17T14:05:49.872Z,73.85
2023-02-17T14:08:38.750Z,75.75
2023-02-17T14:11:13.146Z,82.30
2023-02-17T14:13:45.457Z,89.80
2023-02-17T14:16:35.742Z,87.97
2023-02-17T14:19:18.150Z,79.80
2023-02-17T14:21:57.446Z,101.70
2023-02-17T14:24:37.890Z,105.03
2023-02-17T14:27:09.554Z,90.07
2023-02-17T14:29:48.408Z,156.13
2023-02-17T14:32:38.226Z,125.72
2023-02-17T14:35:18.900Z,130.80
2023-02-17T14:37:46.422Z,90.18
2023-02-17T14:40:23.335Z,97.22
2023-02-17T14:42:51.240Z,95.28
2023-02-17T14:45:19.201Z,105.25
2023-02-17T14:47:48.106Z,55.30
2023-02-17T14:50:17.493Z,55.33
2023-02-17T14:52:47.558Z,57.95
2023-02-17T14:55:36.328Z,64.05
2023-02-17T14:58:03.894Z,115.55
2023-02-17T15:00:31.847Z,89.82
2023-02-17T15:02:59.295Z,60.05
2023-02-17T15:05:27.211Z,55.70
2023-02-17T15:07:55.631Z,76.85
2023-02-17T15:10:28.288Z,57.45
2023-02-17T15:12:56.080Z,90.75
2023-02-17T15:15:23.652Z,89.32
2023-02-17T15:17:50.957Z,123.15
2023-02-17T15:20:18.739Z,84.43
2023-02-17T15:22:52.646Z,86.05
2023-02-17T15:25:24.585Z,169.75
2023-02-17T15:27:51.940Z,73.40
2023-02-17T15:30:21.425Z,103.95
2023-02-17T15:32:48.759Z,108.35
2023-02-17T15:35:21.587Z,171.90
2023-02-17T15:37:49.034Z,75.72
2023-02-17T15:40:19.570Z,47.58
2023-02-17T15:42:56.403Z,53.92
2023-02-17T15:45:24.772Z,55.17
2023-02-17T15:47:58.175Z,56.85
2023-02-17T15:50:25.924Z,46.30
2023-02-17T15:52:53.018Z,46.17
2023-02-17T15:55:21.242Z,60.45
2023-02-17T15:57:54.560Z,49.10
2023-02-17T16:00:32.945Z,67.28
2023-02-17T16:03:00.442Z,84.28
2023-02-17T16:05:33.555Z,88.43
2023-02-17T16:08:00.626Z,89.75
2023-02-17T16:10:28.819Z,94.93
2023-02-17T16:12:58.284Z,59.30
2023-02-17T16:15:27.420Z,65.97
2023-02-17T16:17:55.744Z,64.75
2023-02-17T16:20:35.688Z,62.97
2023-02-17T16:23:03.332Z,68.50
2023-02-17T16:25:30.898Z,69.43
2023-02-17T16:28:01.137Z,83.22
2023-02-17T16:30:35.912Z,76.28
2023-02-17T16:33:03.488Z,72.15
2023-02-17T16:35:32.173Z,75.93
2023-02-17T16:38:07.561Z,107.82
2023-02-17T16:40:37.136Z,115.18
2023-02-17T16:43:04.728Z,114.90
2023-02-17T16:45:33.992Z,91.40
2023-02-17T16:48:01.862Z,93.78
2023-02-17T16:50:34.995Z,121.68
2023-02-17T16:53:08.146Z,69.95
2023-02-17T16:55:36.877Z,50.92
2023-02-17T16:58:04.950Z,60.75
2023-02-17T17:00:33.007Z,47.40
2023-02-17T17:03:00.271Z,59.45
2023-02-17T17:05:28.945Z,60.13
2023-02-17T17:07:57.002Z,43.45
2023-02-17T17:10:28.206Z,37.65
2023-02-17T17:12:55.532Z,49.50
2023-02-17T17:15:28.443Z,46.72
2023-02-17T17:18:04.807Z,83.85
2023-02-17T17:20:35.250Z,43.03
2023-02-17T17:23:05.447Z,50.00
2023-02-17T17:25:39.917Z,44.58
2023-02-17T17:28:07.491Z,58.03
2023-02-17T17:30:37.345Z,57.13
2023-02-17T17:33:04.791Z,44.53
2023-02-17T17:35:32.895Z,37.45
2023-02-17T17:38:00.278Z,40.13
2023-02-17T17:40:48.287Z,33.17
2023-02-17T17:43:23.536Z,36.47
2023-02-17T17:45:51.607Z,28.63
2023-02-17T17:48:19.511Z,38.20
2023-02-17T17:50:51.458Z,46.17
2023-02-17T17:53:18.549Z,50.50
2023-02-17T17:55:47.282Z,50.85
2023-02-17T17:58:16.234Z,57.92
2023-02-17T18:00:43.624Z,48.92
2023-02-17T18:03:10.752Z,46.13
2023-02-17T18:05:41.519Z,47.47
2023-02-17T18:08:09.166Z,120.82
2023-02-17T18:10:41.926Z,276.60
2023-02-17T18:13:11.869Z,77.07
2023-02-17T18:15:41.239Z,52.28
2023-02-17T18:18:08.816Z,103.72
2023-02-17T18:20:36.209Z,85.88
2023-02-17T18:23:03.355Z,76.15
2023-02-17T18:25:31.051Z,50.40
2023-02-17T18:28:01.140Z,55.92
2023-02-17T18:30:28.479Z,42.95
2023-02-17T18:32:56.146Z,56.22
2023-02-17T18:35:23.836Z,85.18
2023-02-17T18:37:51.492Z,52.80
2023-02-17T18:40:20.394Z,75.80
2023-02-17T18:42:49.593Z,39.08
2023-02-17T18:45:17.624Z,46.05
2023-02-17T18:47:45.475Z,44.67
2023-02-17T18:50:14.061Z,46.90
2023-02-17T18:52:43.518Z,37.28
2023-02-17T18:55:11.274Z,41.65
2023-02-17T18:57:38.670Z,35.55
2023-02-17T19:00:10.765Z,34.83
2023-02-17T19:02:43.759Z,38.47
2023-02-17T19:05:11.965Z,34.08
2023-02-17T19:07:41.086Z,40.92
2023-02-17T19:10:11.267Z,31.33
2023-02-17T19:12:38.609Z,29.42
2023-02-17T19:15:07.086Z,29.70
2023-02-17T19:17:34.227Z,63.78
2023-02-17T19:20:01.787Z,59.58
2023-02-17T19:22:32.034Z,53.47
2023-02-17T19:24:59.551Z,56.63
2023-02-17T19:27:26.766Z,62.65
2023-02-17T19:29:54.156Z,42.35
2023-02-17T19:32:22.333Z,31.33
2023-02-17T19:34:49.805Z,45.17
2023-02-17T19:37:16.950Z,34.60
2023-02-17T19:39:45.520Z,26.48
2023-02-17T19:42:13.019Z,22.13
2023-02-17T19:44:40.550Z,29.27
2023-02-17T19:47:10.622Z,24.90
2023-02-17T19:49:38.294Z,19.65
2023-02-17T19:52:07.965Z,19.60
2023-02-17T19:54:35.352Z,20.45
2023-02-17T19:57:02.541Z,36.58
2023-02-17T19:59:33.373Z,19.27
2023-02-17T20:02:00.629Z,17.90
2023-02-17T20:04:28.067Z,23.17
2023-02-17T20:06:55.305Z,12.25
2023-02-17T20:09:23.527Z,27.00
2023-02-17T20:11:53.293Z,22.00
2023-02-17T20:14:21.350Z,32.08
2023-02-17T20:16:48.656Z,23.70
2023-02-17T20:19:16.332Z,32.50
2023-02-17T20:21:45.303Z,24.20
2023-02-17T20:24:14.307Z,21.75
2023-02-17T20:26:44.545Z,23.33
2023-02-17T20:29:14.966Z,21.17
2023-02-17T20:31:42.713Z,16.75
2023-02-17T20:34:27.727Z,20.85
2023-02-17T20:36:55.478Z,19.77
2023-02-17T20:39:23.800Z,16.70
2023-02-17T20:41:50.943Z,17.45
2023-02-17T20:44:18.780Z,16.25
2023-02-17T20:46:46.788Z,22.45
2023-02-17T20:49:15.656Z,20.40
2023-02-17T20:51:42.939Z,18.23
2023-02-17T20:54:10.303Z,15.05
2023-02-17T20:56:43.496Z,33.67
2023-02-17T20:59:14.684Z,14.13
2023-02-17T21:01:42.393Z,16.90
2023-02-17T21:04:10.048Z,19.10
2023-02-17T21:06:41.504Z,34.78
2023-02-17T21:09:17.194Z,21.83
2023-02-17T21:11:45.508Z,19.30
2023-02-17T21:14:13.777Z,15.05
2023-02-17T21:16:41.521Z,13.68
2023-02-17T21:19:09.539Z,23.42
2023-02-17T21:21:36.665Z,17.27
2023-02-17T21:24:04.830Z,24.52
2023-02-17T21:26:33.355Z,38.40
2023-02-17T21:29:00.794Z,60.53
2023-02-17T21:31:31.392Z,63.72
2023-02-17T21:33:59.430Z,41.53
2023-02-17T21:36:28.961Z,31.13
2023-02-17T21:38:57.231Z,24.73
2023-02-17T21:41:30.365Z,28.13
2023-02-17T21:44:16.965Z,42.42
2023-02-17T21:46:46.491Z,32.95
2023-02-17T21:49:14.157Z,37.00
2023-02-17T21:51:41.792Z,54.88
2023-02-17T21:54:10.139Z,34.17
2023-02-17T21:56:37.800Z,45.53
2023-02-17T21:59:09.295Z,37.65
2023-02-17T22:01:37.162Z,40.53
2023-02-17T22:04:05.192Z,41.92
2023-02-17T22:06:35.454Z,34.83
2023-02-17T22:09:07.037Z,37.47
2023-02-17T22:11:36.494Z,23.05
2023-02-17T22:14:11.396Z,30.02
2023-02-17T22:16:41.839Z,25.13
2023-02-17T22:19:22.080Z,40.83
2023-02-17T22:21:51.454Z,33.28
2023-02-17T22:24:22.854Z,24.05
2023-02-17T22:26:50.177Z,29.88
2023-02-17T22:29:17.911Z,28.27
2023-02-17T22:31:45.230Z,31.70
2023-02-17T22:34:14.551Z,24.42
2023-02-17T22:36:41.993Z,32.38
2023-02-17T22:39:09.595Z,30.23
2023-02-17T22:41:36.759Z,27.38
2023-02-17T22:44:04.347Z,35.20
2023-02-17T22:46:31.942Z,25.65
2023-02-17T22:49:00.141Z,22.02
2023-02-17T22:51:32.724Z,30.75
2023-02-17T22:54:01.116Z,26.27
2023-02-17T22:56:28.774Z,21.33
2023-02-17T22:59:00.613Z,24.40
2023-02-17T23:01:29.391Z,24.00
2023-02-17T23:03:56.875Z,19.08
2023-02-17T23:06:33.116Z,20.48
2023-02-17T23:09:01.806Z,17.75
2023-02-17T23:11:50.074Z,16.30
2023-02-17T23:14:27.171Z,23.73
2023-02-17T23:16:57.831Z,19.67
2023-02-17T23:19:25.593Z,26.20
2023-02-17T23:21:55.880Z,18.98
2023-02-17T23:24:24.439Z,18.15
2023-02-17T23:26:52.969Z,19.55
2023-02-17T23:29:20.452Z,15.15
2023-02-17T23:31:47.594Z,22.15
2023-02-17T23:34:16.224Z,18.23
2023-02-17T23:36:45.043Z,15.52
2023-02-17T23:39:13.363Z,13.55
2023-02-17T23:41:41.152Z,17.90
2023-02-17T23:44:11.359Z,14.85
2023-02-17T23:46:40.859Z,21.98
2023-02-17T23:49:08.990Z,14.02
2023-02-17T23:51:36.077Z,17.17
2023-02-17T23:54:03.438Z,16.83
2023-02-17T23:56:35.365Z,24.73
2023-02-17T23:59:03.647Z,16.48
